Time;durP1;ratioP1;P1;durP2;ratioP2;P2;SDS_P1;SDS_P2;PMS_P1;PMS_P2;Temp;Humidity;BMP_temperature;BMP_pressure;BME280_temperature;BME280_humidity;BME280_pressure;Samples;Min_cycle;Max_cycle;Signal;HPM_P1;HPM_P2
2022/09/20 00:02:48;;;;;;;34.85;17.63;;;9.80;99.90;;;;;;9863403;30;20109;-82
2022/09/20 00:07:49;;;;;;;37.78;19.20;;;9.80;99.90;;;;;;9847016;30;20117;-81
2022/09/20 00:12:50;;;;;;;35.50;18.38;;;9.80;99.90;;;;;;9849457;30;20382;-85
2022/09/20 00:17:50;;;;;;;34.75;17.50;;;9.90;99.90;;;;;;9843483;30;20031;-85
2022/09/20 00:22:51;;;;;;;33.58;17.58;;;9.80;99.90;;;;;;9860938;30;20064;-85
2022/09/20 00:27:52;;;;;;;29.48;16.23;;;9.90;99.90;;;;;;9861586;30;20052;-82
2022/09/20 00:32:52;;;;;;;36.00;19.88;;;9.90;99.90;;;;;;9857361;30;20060;-83
2022/09/20 00:37:53;;;;;;;42.83;19.73;;;9.90;99.90;;;;;;9863419;30;20059;-83
2022/09/20 00:42:54;;;;;;;28.20;15.75;;;9.80;99.90;;;;;;9862094;30;20565;-84
2022/09/20 00:48:11;;;;;;;36.50;17.83;;;9.80;99.90;;;;;;9847007;30;20050;-83
2022/09/20 00:53:23;;;;;;;42.78;19.55;;;9.90;99.90;;;;;;9861475;30;20134;-83
2022/09/20 00:58:26;;;;;;;37.05;18.05;;;9.80;99.90;;;;;;9863399;30;20035;-82
2022/09/20 01:03:30;;;;;;;36.63;17.63;;;9.80;99.90;;;;;;9821211;30;20051;-83
2022/09/20 01:08:32;;;;;;;29.30;15.63;;;9.80;99.90;;;;;;9827048;30;20056;-85
2022/09/20 01:13:33;;;;;;;32.05;16.02;;;9.80;99.90;;;;;;9825938;30;20057;-82
2022/09/20 01:18:35;;;;;;;28.13;15.00;;;9.80;99.90;;;;;;9823910;30;20040;-82
2022/09/20 01:23:47;;;;;;;25.50;14.60;;;9.80;99.90;;;;;;9825307;30;20509;-83
2022/09/20 01:28:50;;;;;;;22.55;13.00;;;9.70;99.90;;;;;;9816801;30;20091;-82
2022/09/20 01:33:56;;;;;;;23.35;12.77;;;9.80;99.90;;;;;;9821268;30;20032;-86
2022/09/20 01:39:07;;;;;;;21.88;12.27;;;9.70;99.90;;;;;;9815415;30;20074;-84
2022/09/20 01:44:19;;;;;;;20.75;11.43;;;9.70;99.90;;;;;;9820704;30;20430;-83
2022/09/20 01:49:36;;;;;;;25.80;13.32;;;9.70;99.90;;;;;;9816441;30;20387;-83
2022/09/20 01:54:46;;;;;;;21.80;12.27;;;9.70;99.90;;;;;;9823560;30;20032;-83
2022/09/20 02:00:05;;;;;;;19.55;11.13;;;9.70;99.90;;;;;;9808727;30;20090;-84
2022/09/20 02:05:08;;;;;;;22.15;11.90;;;9.70;99.90;;;;;;9823090;30;20082;-83
2022/09/20 02:10:37;;;;;;;20.15;11.32;;;9.70;99.90;;;;;;9824030;30;20486;-83
2022/09/20 02:16:04;;;;;;;22.92;11.93;;;9.70;99.90;;;;;;9823223;30;20089;-84
2022/09/20 02:21:34;;;;;;;19.70;11.75;;;9.70;99.90;;;;;;9818878;30;20040;-86
2022/09/20 02:26:40;;;;;;;24.57;13.93;;;9.60;99.90;;;;;;9822837;30;20401;-83
2022/09/20 02:32:11;;;;;;;22.88;12.88;;;9.60;99.90;;;;;;9823296;30;20048;-85
2022/09/20 02:37:11;;;;;;;24.90;14.77;;;9.60;99.90;;;;;;9818737;30;20036;-83
2022/09/20 02:42:28;;;;;;;23.90;12.47;;;9.60;99.90;;;;;;9807729;30;20040;-82
2022/09/20 02:47:36;;;;;;;25.43;13.70;;;9.60;99.90;;;;;;9816776;30;20044;-82
2022/09/20 02:52:55;;;;;;;29.65;15.60;;;9.50;99.90;;;;;;9821843;30;20079;-83
2022/09/20 02:58:18;;;;;;;24.60;14.35;;;9.50;99.90;;;;;;9805207;30;20050;-86
2022/09/20 03:03:42;;;;;;;25.13;14.17;;;9.60;99.90;;;;;;9851477;30;20055;-84
2022/09/20 03:09:07;;;;;;;22.70;13.10;;;9.60;99.90;;;;;;9865579;30;20047;-85
2022/09/20 03:14:29;;;;;;;28.27;14.75;;;9.50;99.90;;;;;;9848042;30;20593;-82
2022/09/20 03:19:47;;;;;;;27.15;16.40;;;9.50;99.90;;;;;;9865678;30;20035;-84
2022/09/20 03:25:20;;;;;;;30.58;18.83;;;9.50;99.90;;;;;;9845773;30;20082;-87
2022/09/20 03:30:42;;;;;;;40.78;24.10;;;9.50;99.90;;;;;;9866324;30;20043;-85
2022/09/20 03:36:00;;;;;;;31.77;15.82;;;9.50;99.90;;;;;;9859973;30;20426;-86
2022/09/20 03:41:16;;;;;;;31.20;18.03;;;9.50;99.90;;;;;;9864475;30;20061;-86
2022/09/20 03:46:18;;;;;;;34.20;18.33;;;9.50;99.90;;;;;;9865906;30;20039;-84
2022/09/20 03:51:40;;;;;;;36.53;18.37;;;9.50;99.90;;;;;;9857575;30;20056;-89
2022/09/20 03:56:57;;;;;;;43.22;23.75;;;9.50;99.90;;;;;;9844223;30;20066;-85
2022/09/20 04:01:58;;;;;;;33.63;19.23;;;9.50;99.90;;;;;;9861348;30;20058;-87
2022/09/20 04:07:16;;;;;;;48.73;28.33;;;9.50;99.90;;;;;;9847333;30;20046;-84
2022/09/20 04:12:45;;;;;;;39.13;25.83;;;9.50;99.90;;;;;;9864063;30;20048;-84
2022/09/20 04:18:01;;;;;;;35.13;17.50;;;9.50;99.90;;;;;;9857142;30;20158;-88
2022/09/20 04:23:14;;;;;;;32.45;18.95;;;9.50;99.90;;;;;;9862390;30;20048;-84
2022/09/20 04:28:23;;;;;;;30.35;14.95;;;9.60;99.90;;;;;;9859580;30;20117;-82
2022/09/20 04:33:36;;;;;;;41.53;23.85;;;9.60;99.90;;;;;;9861073;30;20104;-83
2022/09/20 04:38:36;;;;;;;39.25;19.33;;;9.60;99.90;;;;;;9860600;30;20744;-84
2022/09/20 04:44:05;;;;;;;31.92;16.42;;;9.60;99.90;;;;;;9860892;30;20032;-83
2022/09/20 04:49:33;;;;;;;30.23;16.85;;;9.60;99.90;;;;;;9861035;30;20035;-83
2022/09/20 04:55:11;;;;;;;27.23;14.20;;;9.60;99.90;;;;;;9863499;30;20046;-83
2022/09/20 05:00:19;;;;;;;32.88;17.10;;;9.60;99.90;;;;;;9858170;30;20097;-82
2022/09/20 05:05:57;;;;;;;25.13;13.20;;;9.60;99.90;;;;;;9862968;30;20493;-84
2022/09/20 05:11:09;;;;;;;31.70;15.82;;;9.60;99.90;;;;;;9862907;30;20058;-84
2022/09/20 05:16:46;;;;;;;29.23;18.55;;;9.70;99.90;;;;;;9862167;30;20758;-83
2022/09/20 05:21:51;;;;;;;26.33;13.70;;;9.70;99.90;;;;;;9842024;30;20039;-83
2022/09/20 05:27:07;;;;;;;29.25;15.07;;;9.70;99.90;;;;;;9844089;30;20070;-83
2022/09/20 05:32:13;;;;;;;;;;;9.70;99.90;;;;;;9862028;30;20721;-84
2022/09/20 05:37:48;;;;;;;29.03;13.90;;;9.80;99.90;;;;;;9861188;30;19914;-83
2022/09/20 05:43:07;;;;;;;24.80;14.60;;;9.80;99.90;;;;;;9843099;30;20787;-83
2022/09/20 05:48:23;;;;;;;20.10;12.75;;;9.80;99.90;;;;;;9861720;30;20074;-83
2022/09/20 05:53:45;;;;;;;20.90;11.00;;;9.80;99.90;;;;;;9843832;30;20039;-83
2022/09/20 05:59:19;;;;;;;15.63;9.43;;;9.80;99.90;;;;;;9861239;30;20028;-84
2022/09/20 06:04:29;;;;;;;13.02;7.57;;;9.90;99.90;;;;;;9861016;30;20059;-84
2022/09/20 06:10:12;;;;;;;8.77;6.30;;;9.90;99.90;;;;;;9844648;30;20047;-83
2022/09/20 06:15:27;;;;;;;12.73;7.65;;;9.90;99.90;;;;;;9860844;30;20043;-83
2022/09/20 06:20:33;;;;;;;9.43;6.43;;;10.00;99.90;;;;;;9860722;30;20127;-83
2022/09/20 06:25:47;;;;;;;11.38;7.40;;;10.00;99.90;;;;;;9860403;30;20101;-83
2022/09/20 06:30:52;;;;;;;10.13;6.47;;;10.00;99.90;;;;;;9844978;30;20043;-83
2022/09/20 06:41:25;;;;;;;11.38;6.85;;;10.10;99.90;;;;;;9859356;30;20056;-83
2022/09/20 06:41:27;;;;;;;10.57;6.78;;;10.20;99.90;;;;;;9859662;30;20044;-83
2022/09/20 06:46:30;;;;;;;9.48;6.68;;;10.20;99.90;;;;;;9855812;30;20035;-82
2022/09/20 06:51:36;;;;;;;10.20;5.43;;;10.20;99.90;;;;;;9858353;30;20046;-83
2022/09/20 06:56:37;;;;;;;9.00;5.72;;;10.20;99.90;;;;;;9859690;30;20040;-84
2022/09/20 07:01:38;;;;;;;9.70;6.72;;;10.20;99.90;;;;;;9857565;30;20117;-84
2022/09/20 07:06:39;;;;;;;14.70;8.35;;;10.30;99.90;;;;;;9844293;30;20046;-84
2022/09/20 07:11:39;;;;;;;17.15;9.00;;;10.30;99.90;;;;;;9859468;30;20129;-82
2022/09/20 07:16:40;;;;;;;11.48;7.68;;;10.40;99.90;;;;;;9859882;30;20489;-83
2022/09/20 07:21:41;;;;;;;12.27;7.70;;;10.40;99.90;;;;;;9858513;30;20043;-84
2022/09/20 07:26:55;;;;;;;16.08;9.45;;;10.50;99.90;;;;;;9859214;30;20374;-84
2022/09/20 07:31:55;;;;;;;17.98;10.63;;;10.50;99.90;;;;;;9856362;30;20036;-84
2022/09/20 07:36:58;;;;;;;17.15;9.82;;;10.50;99.90;;;;;;9843318;30;20467;-84
2022/09/20 07:42:00;;;;;;;19.65;11.55;;;10.60;99.90;;;;;;9859460;30;20036;-83
2022/09/20 07:47:01;;;;;;;28.77;17.52;;;10.50;99.90;;;;;;9864523;30;20035;-83
2022/09/20 07:52:03;;;;;;;33.40;19.80;;;10.50;99.90;;;;;;9865057;30;20071;-83
2022/09/20 07:57:04;;;;;;;27.70;13.45;;;10.50;99.90;;;;;;9865783;30;20043;-84
2022/09/20 08:02:05;;;;;;;30.85;21.33;;;10.50;99.90;;;;;;9865383;30;20142;-83
2022/09/20 08:07:05;;;;;;;43.40;28.10;;;10.60;99.90;;;;;;9865264;30;20240;-83
2022/09/20 08:12:07;;;;;;;39.25;24.88;;;10.70;99.90;;;;;;9849393;30;20059;-84
2022/09/20 08:17:10;;;;;;;29.25;18.38;;;10.80;99.90;;;;;;9865008;30;20032;-83
2022/09/20 08:22:11;;;;;;;15.18;10.02;;;11.10;99.90;;;;;;9863656;30;20036;-83
2022/09/20 08:27:12;;;;;;;17.23;11.82;;;11.20;99.90;;;;;;9865041;30;20020;-84
2022/09/20 08:32:12;;;;;;;14.38;9.60;;;11.10;99.90;;;;;;9864741;30;20070;-83
2022/09/20 08:37:13;;;;;;;13.52;8.57;;;11.00;99.90;;;;;;9864928;30;20511;-84
2022/09/20 08:42:26;;;;;;;13.00;9.68;;;10.90;99.90;;;;;;9848933;30;20043;-84
2022/09/20 08:47:37;;;;;;;12.02;8.35;;;10.90;99.90;;;;;;9860459;30;20089;-83
2022/09/20 08:52:39;;;;;;;23.38;13.95;;;11.00;99.90;;;;;;9859426;30;20050;-84
2022/09/20 08:57:40;;;;;;;15.38;10.40;;;11.20;99.90;;;;;;9863211;30;20062;-84
2022/09/20 09:02:40;;;;;;;8.98;6.97;;;11.30;99.90;;;;;;9864142;30;20519;-83
2022/09/20 09:07:41;;;;;;;12.02;8.85;;;11.50;99.90;;;;;;9859526;30;20047;-84
2022/09/20 09:12:45;;;;;;;28.17;15.90;;;11.50;99.90;;;;;;9862638;30;20047;-83
2022/09/20 09:17:45;;;;;;;16.75;11.30;;;11.30;99.90;;;;;;9863339;30;20073;-84
2022/09/20 09:22:47;;;;;;;17.20;10.95;;;11.30;99.90;;;;;;9843626;30;20385;-84
2022/09/20 09:27:59;;;;;;;14.32;9.73;;;11.20;99.90;;;;;;9862390;30;20134;-83
2022/09/20 09:33:18;;;;;;;19.83;12.75;;;11.20;99.90;;;;;;9845036;30;20043;-83
2022/09/20 09:38:25;;;;;;;13.30;8.68;;;11.30;99.90;;;;;;9861089;30;20032;-84
2022/09/20 09:43:34;;;;;;;9.02;5.70;;;11.20;99.90;;;;;;9861520;30;20059;-82
2022/09/20 09:48:35;;;;;;;10.55;7.32;;;11.30;99.90;;;;;;9855950;30;20127;-83
2022/09/20 09:53:36;;;;;;;9.93;6.00;;;11.40;99.90;;;;;;9861856;30;20497;-85
2022/09/20 09:58:55;;;;;;;17.85;10.00;;;11.60;99.90;;;;;;9861544;30;20039;-84
2022/09/20 10:04:26;;;;;;;10.02;6.60;;;11.60;99.90;;;;;;9855910;30;20063;-83
2022/09/20 10:09:44;;;;;;;7.13;5.22;;;11.90;99.90;;;;;;9844090;30;20055;-83
2022/09/20 10:14:54;;;;;;;7.72;4.32;;;12.50;99.90;;;;;;9859748;30;20546;-83
2022/09/20 10:20:07;;;;;;;5.95;3.40;;;13.20;99.90;;;;;;9855815;30;20063;-83
2022/09/20 10:25:30;;;;;;;2.60;2.20;;;13.20;99.90;;;;;;9858330;30;20036;-83
2022/09/20 10:30:46;;;;;;;3.85;3.05;;;13.20;99.90;;;;;;9841036;30;20071;-83
2022/09/20 10:35:54;;;;;;;3.65;2.72;;;13.20;99.90;;;;;;9860534;30;20119;-83
2022/09/20 10:47:19;;;;;;;13.07;6.50;;;13.80;99.90;;;;;;9782768;30;20048;-82
2022/09/20 10:52:38;;;;;;;7.68;4.15;;;14.10;99.90;;;;;;9843610;30;20035;-83
2022/09/20 10:57:57;;;;;;;4.43;2.55;;;13.90;99.90;;;;;;9842712;30;20043;-83
2022/09/20 11:03:31;;;;;;;10.18;4.93;;;13.30;99.90;;;;;;9857988;30;20145;-83
2022/09/20 11:08:35;;;;;;;7.07;3.90;;;12.90;99.90;;;;;;9859192;30;20040;-83
2022/09/20 11:14:20;;;;;;;5.13;2.50;;;12.90;99.90;;;;;;9854874;30;20127;-83
2022/09/20 11:19:47;;;;;;;4.13;2.38;;;13.10;99.90;;;;;;9844904;30;20032;-82
2022/09/20 11:24:54;;;;;;;5.57;2.35;;;13.10;99.90;;;;;;9862911;30;20042;-82
2022/09/20 11:30:04;;;;;;;3.28;2.20;;;12.80;99.90;;;;;;9866644;30;20558;-83
2022/09/20 11:35:10;;;;;;;2.70;2.22;;;12.50;99.90;;;;;;9866783;30;20034;-82
2022/09/20 11:40:27;;;;;;;5.18;2.30;;;12.90;99.90;;;;;;9868067;30;20031;-84
2022/09/20 11:45:28;;;;;;;4.28;2.92;;;13.40;99.90;;;;;;9850861;30;20043;-82
2022/09/20 11:50:59;;;;;;;3.45;2.15;;;13.90;99.90;;;;;;9864764;30;20054;-83
2022/09/20 11:56:19;;;;;;;2.40;2.20;;;14.50;99.90;;;;;;9863926;30;20047;-83
2022/09/20 12:01:31;;;;;;;4.18;3.08;;;15.10;99.90;;;;;;9865078;30;20597;-83
2022/09/20 12:06:36;;;;;;;2.15;1.55;;;15.10;99.90;;;;;;9859967;30;20123;-83
2022/09/20 12:11:40;;;;;;;2.50;2.10;;;14.70;99.90;;;;;;9863531;30;20502;-83
2022/09/20 12:16:42;;;;;;;4.35;2.00;;;14.60;99.90;;;;;;9863683;30;20031;-83
2022/09/20 12:22:04;;;;;;;4.47;2.05;;;15.30;99.90;;;;;;9865018;30;20028;-82
2022/09/20 12:27:21;;;;;;;4.10;2.00;;;16.10;99.90;;;;;;9847412;30;20405;-83
2022/09/20 12:32:42;;;;;;;3.30;1.85;;;15.70;99.90;;;;;;9844773;30;20481;-83
2022/09/20 12:37:42;;;;;;;3.22;1.80;;;15.20;99.90;;;;;;9848135;30;20036;-82
2022/09/20 12:42:43;;;;;;;2.10;1.27;;;15.60;99.90;;;;;;9861737;30;20405;-83
2022/09/20 12:47:54;;;;;;;1.20;1.10;;;15.00;99.90;;;;;;9859875;30;20512;-81
2022/09/20 12:52:57;;;;;;;1.83;1.33;;;14.40;99.90;;;;;;9859185;30;20522;-82
2022/09/20 12:58:06;;;;;;;2.63;1.50;;;14.80;99.90;;;;;;9859458;30;20506;-83
2022/09/20 13:03:33;;;;;;;2.47;1.13;;;15.50;99.90;;;;;;9860606;30;20056;-83
2022/09/20 13:08:46;;;;;;;3.47;3.17;;;15.00;99.90;;;;;;9860507;30;20172;-83
2022/09/20 13:14:06;;;;;;;3.17;2.30;;;14.60;99.90;;;;;;9861052;30;20032;-82
2022/09/20 13:19:16;;;;;;;1.42;1.08;;;15.00;99.90;;;;;;9861842;30;20048;-82
2022/09/20 13:24:19;;;;;;;1.45;1.10;;;15.50;99.90;;;;;;9847219;30;20032;-82
2022/09/20 13:29:33;;;;;;;1.60;1.42;;;15.40;99.90;;;;;;9862391;30;20477;-82
2022/09/20 13:34:34;;;;;;;1.55;1.30;;;15.50;99.90;;;;;;9853166;30;20040;-84
2022/09/20 13:39:36;;;;;;;4.53;2.20;;;15.80;99.90;;;;;;9846526;30;20603;-83
2022/09/20 13:44:37;;;;;;;2.45;1.55;;;16.00;99.90;;;;;;9858315;30;20046;-82
2022/09/20 13:49:42;;;;;;;1.65;1.38;;;15.90;99.90;;;;;;9860651;30;20054;-82
2022/09/20 13:54:42;;;;;;;1.17;0.98;;;15.60;99.90;;;;;;9855989;30;20405;-82
2022/09/20 13:59:45;;;;;;;1.52;1.25;;;14.90;99.90;;;;;;9860890;30;20050;-81
2022/09/20 14:04:46;;;;;;;1.13;0.90;;;14.90;99.90;;;;;;9843031;30;20051;-82
2022/09/20 14:09:46;;;;;;;4.97;2.63;;;15.00;99.90;;;;;;9860601;30;20060;-84
2022/09/20 14:14:47;;;;;;;4.88;2.50;;;15.40;99.90;;;;;;9855167;30;20583;-83
2022/09/20 14:19:53;;;;;;;13.98;6.70;;;15.70;99.90;;;;;;9861500;30;20039;-84
2022/09/20 14:25:00;;;;;;;15.93;7.55;;;16.00;99.90;;;;;;9861103;30;20028;-83
2022/09/20 14:30:02;;;;;;;1.60;1.20;;;16.10;99.90;;;;;;9858467;30;20036;-83
2022/09/20 14:35:20;;;;;;;1.88;1.38;;;15.80;99.90;;;;;;9858546;30;20131;-82
2022/09/20 14:40:39;;;;;;;1.50;1.38;;;15.30;99.90;;;;;;9860728;30;20118;-82
2022/09/20 14:45:41;;;;;;;3.72;1.52;;;14.90;99.90;;;;;;9858747;30;20547;-82
2022/09/20 14:50:45;;;;;;;1.83;1.30;;;14.70;99.90;;;;;;9857287;30;20529;-83
2022/09/20 14:55:59;;;;;;;2.38;1.75;;;14.40;99.90;;;;;;9859907;30;20730;-82
2022/09/20 15:01:23;;;;;;;3.33;1.33;;;13.70;99.90;;;;;;9842625;30;20055;-82
2022/09/20 15:06:24;;;;;;;1.77;1.40;;;13.10;99.90;;;;;;9855973;30;20040;-82
2022/09/20 15:11:25;;;;;;;1.55;1.20;;;12.70;99.90;;;;;;9859217;30;20055;-82
2022/09/20 15:16:27;;;;;;;2.97;1.50;;;12.50;99.90;;;;;;9842436;30;20493;-81
2022/09/20 15:21:27;;;;;;;2.13;1.52;;;12.40;99.90;;;;;;9858319;30;20066;-81
2022/09/20 15:26:30;;;;;;;2.45;1.67;;;12.30;99.90;;;;;;9855281;30;20119;-82
2022/09/20 15:31:31;;;;;;;3.15;2.05;;;12.40;99.90;;;;;;9857869;30;20069;-82
2022/09/20 15:36:32;;;;;;;3.35;2.70;;;12.50;99.90;;;;;;9847962;30;20051;-81
2022/09/20 15:41:34;;;;;;;4.93;2.40;;;12.50;99.90;;;;;;9842920;30;20040;-81
2022/09/20 15:46:35;;;;;;;5.03;2.72;;;12.50;99.90;;;;;;9859291;30;20031;-81
2022/09/20 15:51:36;;;;;;;3.08;2.35;;;12.50;99.90;;;;;;9859334;30;20060;-81
2022/09/20 15:56:39;;;;;;;5.78;2.80;;;12.50;99.90;;;;;;9859909;30;20027;-81
2022/09/20 16:01:42;;;;;;;5.32;3.22;;;12.50;99.90;;;;;;9857385;30;20056;-81
2022/09/20 16:06:44;;;;;;;7.07;3.05;;;12.40;99.90;;;;;;9854154;30;20040;-81
2022/09/20 16:11:46;;;;;;;9.52;5.65;;;12.30;99.90;;;;;;9865340;30;20056;-82
2022/09/20 16:16:46;;;;;;;8.80;5.40;;;12.20;99.90;;;;;;9863417;30;20067;-80
2022/09/20 16:21:49;;;;;;;14.68;7.25;;;12.10;99.90;;;;;;9865435;30;20491;-80
2022/09/20 16:26:50;;;;;;;14.80;8.60;;;12.00;99.90;;;;;;9865456;30;20389;-80
2022/09/20 16:31:52;;;;;;;14.90;7.72;;;11.90;99.90;;;;;;9863439;30;20047;-81
2022/09/20 16:36:55;;;;;;;9.00;6.00;;;11.70;99.90;;;;;;9865660;30;20107;-80
2022/09/20 16:42:04;;;;;;;9.65;6.20;;;11.60;99.90;;;;;;9863764;30;20198;-80
2022/09/20 16:47:07;;;;;;;11.23;6.57;;;11.40;99.90;;;;;;9864110;30;20614;-81
2022/09/20 16:52:08;;;;;;;10.55;5.97;;;11.20;99.90;;;;;;9859313;30;20052;-81
2022/09/20 16:57:09;;;;;;;14.30;7.40;;;11.00;99.90;;;;;;9862622;30;20039;-82
2022/09/20 17:02:11;;;;;;;12.27;6.80;;;10.90;99.90;;;;;;9861168;30;20126;-82
2022/09/20 17:07:11;;;;;;;12.10;6.63;;;10.60;99.90;;;;;;9863291;30;20054;-81
2022/09/20 17:12:17;;;;;;;13.98;7.65;;;10.40;99.90;;;;;;9863878;30;20051;-81
2022/09/20 17:17:21;;;;;;;;;;;10.20;99.90;;;;;;9860864;30;20031;-81
2022/09/20 17:22:22;;;;;;;13.90;8.02;;;10.10;99.90;;;;;;9863643;30;19975;-81
2022/09/20 17:27:23;;;;;;;15.15;7.43;;;10.00;99.90;;;;;;9858248;30;20032;-81
2022/09/20 17:32:23;;;;;;;23.73;11.05;;;9.90;99.90;;;;;;9843387;30;20054;-80
2022/09/20 17:37:24;;;;;;;20.60;11.82;;;9.90;99.90;;;;;;9849353;30;20043;-80
2022/09/20 17:42:26;;;;;;;34.28;18.00;;;9.90;99.90;;;;;;9855223;30;20526;-83
2022/09/20 17:47:26;;;;;;;41.10;21.58;;;10.00;99.90;;;;;;9855539;30;20113;-81
2022/09/20 17:52:27;;;;;;;28.83;14.93;;;10.10;99.90;;;;;;9861542;30;20138;-81
2022/09/20 17:57:28;;;;;;;25.67;14.05;;;10.20;99.90;;;;;;9837842;30;20042;-80
2022/09/20 18:02:29;;;;;;;77.00;39.22;;;10.20;99.90;;;;;;9858065;30;20059;-80
2022/09/20 18:07:31;;;;;;;47.55;24.90;;;10.20;99.90;;;;;;9854621;30;20036;-82
2022/09/20 18:12:32;;;;;;;51.15;31.13;;;10.20;99.90;;;;;;9853423;30;20502;-82
2022/09/20 18:17:33;;;;;;;49.00;29.90;;;10.20;99.90;;;;;;9848152;30;20036;-83
2022/09/20 18:22:34;;;;;;;16.42;10.40;;;10.10;99.90;;;;;;9831187;30;20040;-79
2022/09/20 18:27:34;;;;;;;14.23;8.75;;;10.10;99.90;;;;;;9857531;30;20051;-82
2022/09/20 18:32:35;;;;;;;11.30;7.30;;;10.10;99.90;;;;;;9857534;30;20059;-82
2022/09/20 18:37:36;;;;;;;13.30;7.50;;;10.20;99.90;;;;;;9859079;30;20108;-81
2022/09/20 18:42:38;;;;;;;12.37;7.10;;;10.20;99.90;;;;;;9857954;30;20043;-84
2022/09/20 18:47:41;;;;;;;13.07;7.47;;;10.20;99.90;;;;;;9842463;30;20032;-83
2022/09/20 18:52:42;;;;;;;13.82;8.25;;;10.10;99.90;;;;;;9844147;30;20070;-84
2022/09/20 18:57:43;;;;;;;12.38;7.47;;;10.10;99.90;;;;;;9858169;30;20107;-85
2022/09/20 19:03:13;;;;;;;10.70;6.50;;;10.20;99.90;;;;;;9859035;30;20064;-84
2022/09/20 19:08:37;;;;;;;11.88;7.00;;;10.20;99.90;;;;;;9853300;30;20040;-87
2022/09/20 19:14:20;;;;;;;13.43;7.95;;;10.20;99.90;;;;;;9859037;30;20529;-87
2022/09/20 19:19:25;;;;;;;9.50;6.88;;;10.20;99.90;;;;;;9823037;30;20177;-87
2022/09/20 19:24:55;;;;;;;8.65;6.38;;;10.20;99.90;;;;;;9843580;30;20267;-87
2022/09/20 19:29:56;;;;;;;10.70;6.68;;;10.10;99.90;;;;;;9840812;30;20039;-85
2022/09/20 19:35:00;;;;;;;12.03;7.50;;;10.10;99.90;;;;;;9857472;30;20032;-84
2022/09/20 19:40:25;;;;;;;11.70;7.60;;;10.00;99.90;;;;;;9842575;30;20032;-83
2022/09/20 19:45:57;;;;;;;11.65;7.15;;;10.00;99.90;;;;;;9865119;30;20032;-83
2022/09/20 19:51:03;;;;;;;13.02;7.88;;;9.90;99.90;;;;;;9858745;30;20550;-84
2022/09/20 19:56:15;;;;;;;10.70;6.80;;;10.00;99.90;;;;;;9839734;30;20115;-84
2022/09/20 20:01:16;;;;;;;9.68;5.88;;;9.90;99.90;;;;;;9842590;30;20086;-84
2022/09/20 20:06:25;;;;;;;8.83;5.53;;;9.90;99.90;;;;;;9843109;30;20115;-83
2022/09/20 20:11:37;;;;;;;12.25;6.20;;;9.90;99.90;;;;;;9840686;30;20090;-83
2022/09/20 20:16:56;;;;;;;5.82;3.78;;;9.80;99.90;;;;;;9834693;30;20036;-84
2022/09/20 20:22:03;;;;;;;6.83;3.90;;;9.70;99.90;;;;;;9838186;30;20040;-84
2022/09/20 20:27:03;;;;;;;5.53;3.60;;;9.70;99.90;;;;;;9830836;30;20028;-84
2022/09/20 20:32:04;;;;;;;6.27;2.60;;;9.70;99.90;;;;;;9837914;30;20055;-84
2022/09/20 20:37:05;;;;;;;6.20;3.17;;;9.60;99.90;;;;;;9837277;30;20039;-84
2022/09/20 20:42:07;;;;;;;3.00;2.20;;;9.60;99.90;;;;;;9838391;30;20036;-84
2022/09/20 20:47:07;;;;;;;4.87;1.97;;;9.60;99.90;;;;;;9836234;30;20486;-84
2022/09/20 20:52:08;;;;;;;4.13;2.00;;;9.60;99.90;;;;;;9833434;30;20044;-84
2022/09/20 20:57:09;;;;;;;2.77;1.63;;;9.70;99.90;;;;;;9824418;30;20036;-84
2022/09/20 21:02:09;;;;;;;2.83;1.50;;;9.80;99.90;;;;;;9836132;30;20505;-84
2022/09/20 21:07:10;;;;;;;2.90;1.27;;;9.80;99.90;;;;;;9836881;30;20028;-84
2022/09/20 21:12:10;;;;;;;2.07;1.87;;;9.80;99.90;;;;;;9816767;30;20044;-84
2022/09/20 21:17:11;;;;;;;5.73;2.70;;;9.70;99.90;;;;;;9820777;30;20201;-84
2022/09/20 21:22:11;;;;;;;4.67;3.10;;;9.70;99.90;;;;;;9847145;30;20372;-84
2022/09/20 21:27:12;;;;;;;5.00;3.30;;;9.70;99.90;;;;;;9863741;30;20126;-84
2022/09/20 21:32:13;;;;;;;4.50;3.07;;;9.70;99.90;;;;;;9861325;30;20119;-85
2022/09/20 21:37:13;;;;;;;4.50;3.37;;;9.60;99.90;;;;;;9863258;30;20505;-84
2022/09/20 21:42:15;;;;;;;7.30;3.78;;;9.60;99.90;;;;;;9842098;30;20065;-84
2022/09/20 21:47:19;;;;;;;9.00;4.07;;;9.60;99.90;;;;;;9863131;30;20034;-84
2022/09/20 21:52:19;;;;;;;9.90;5.00;;;9.70;99.90;;;;;;9861675;30;20047;-84
2022/09/20 21:57:20;;;;;;;9.10;4.50;;;9.70;99.90;;;;;;9862949;30;20039;-84
2022/09/20 22:02:22;;;;;;;7.57;4.47;;;9.70;99.90;;;;;;9861045;30;20089;-84
2022/09/20 22:07:22;;;;;;;10.73;5.00;;;9.80;99.90;;;;;;9845894;30;20055;-84
2022/09/20 22:12:23;;;;;;;7.17;4.57;;;9.80;99.90;;;;;;9845872;30;20040;-85
2022/09/20 22:17:23;;;;;;;7.55;4.20;;;9.90;99.90;;;;;;9845300;30;20508;-84
2022/09/20 22:22:25;;;;;;;4.83;2.73;;;9.80;99.90;;;;;;9858644;30;20042;-84
2022/09/20 22:27:26;;;;;;;3.90;2.60;;;9.80;99.90;;;;;;9861164;30;20046;-85
2022/09/20 22:32:27;;;;;;;4.97;2.63;;;9.80;99.90;;;;;;9860715;30;20044;-84
2022/09/20 22:37:28;;;;;;;4.40;2.37;;;9.80;99.90;;;;;;9844694;30;20031;-84
2022/09/20 22:42:28;;;;;;;4.17;2.57;;;9.60;99.90;;;;;;9859363;30;20040;-83
2022/09/20 22:47:29;;;;;;;11.33;8.07;;;9.50;99.90;;;;;;9860481;30;20040;-82
2022/09/20 22:52:29;;;;;;;12.30;8.03;;;9.50;99.90;;;;;;9860609;30;20083;-82
2022/09/20 22:57:30;;;;;;;16.47;8.23;;;9.40;99.90;;;;;;9861252;30;20130;-82
2022/09/20 23:02:30;;;;;;;15.03;11.43;;;9.30;99.90;;;;;;9858854;30;20527;-82
2022/09/20 23:07:32;;;;;;;16.43;12.70;;;9.30;99.90;;;;;;9845038;30;20133;-83
2022/09/20 23:12:33;;;;;;;14.80;8.53;;;9.20;99.90;;;;;;9817427;30;20054;-83
2022/09/20 23:17:34;;;;;;;18.30;11.43;;;9.10;99.90;;;;;;9821548;30;20044;-83
2022/09/20 23:22:34;;;;;;;13.37;8.63;;;9.00;99.90;;;;;;9843355;30;20048;-83
2022/09/20 23:27:35;;;;;;;19.43;10.77;;;8.90;99.90;;;;;;9841913;30;20039;-84
2022/09/20 23:32:35;;;;;;;19.57;12.33;;;8.90;99.90;;;;;;9841302;30;20413;-83
2022/09/20 23:37:36;;;;;;;25.60;12.40;;;8.80;99.90;;;;;;9837716;30;20090;-83
2022/09/20 23:42:37;;;;;;;29.33;19.23;;;8.80;99.90;;;;;;9839450;30;20035;-83
2022/09/20 23:47:37;;;;;;;39.77;26.13;;;8.70;99.90;;;;;;9850573;30;20485;-82
2022/09/20 23:52:38;;;;;;;29.03;16.70;;;8.70;99.90;;;;;;9858221;30;20055;-83
2022/09/20 23:57:38;;;;;;;24.73;13.90;;;8.70;99.90;;;;;;9864077;30;20130;-83
